Tropical Cyclones
[Index]
Main Index Home Page Stock Weather Photos Extreme Storms Discussion Storm News and Storm Chasing Reports Tropical Cyclones / Hurricanes / Typhoons Weather Data and Links Wild Fires / Bushfires Weather Observation Techniques Weather Picture Catalogue Tornado Pictures and Reports Stock Video Footage and DVDs for sale
Season 2001-2002 Tropical Cyclone WAKA Track Map
Season 2001-2002 Summaries (Operational Data): [AU] [SIO] [SPAC] [SH]
<<- Previous TC | 2001-2002 Season | Next TC ->>

click for intensity scale information  Lat/long Grid: Show Hide

 Date Labels: Show Hide

Operational Tropical Cyclone Data : JTWC Advisories

Name: WAKA
Number: 0207

19 Dec 2001 21:00 UTC to 05 Jan 2002 05:00 UTC

    date/time    lat    long     hPa   cat  kts
2001-12-19 21   11.0   171.0    1002         25          
2001-12-20 12   11.5   172.0    1000         30          
2001-12-20 18   11.5   172.3    1000         30          
2001-12-21 00   11.5   172.5    1000         30          
2001-12-21 06   14.0   174.0    1000         30          
2001-12-21 12   14.4   174.5    1000         30          
2001-12-21 18   14.5   174.8    1000         30          
2001-12-22 00   15.0   175.0    1000         30          
2001-12-22 06   15.0   175.0    1000         30          
2001-12-22 12   15.0   175.5    1000         30          
2001-12-22 21   16.5   175.0    1004         25          
2001-12-23 06   16.5   179.5    1003         25          
2001-12-23 21   17.0   179.0W   1003         25          
2001-12-24 21   15.0   176.5W   1003         25          
2001-12-25 21   14.0   177.0W   1003         25          
2001-12-26 06   14.0   177.0W   1002         25          
2001-12-27 00   12.5   177.5W   1004         25          
2001-12-27 06   11.8   178.0W   1002         25          
2001-12-27 12   12.0   175.0W   1002         25          
2001-12-27 18   12.0   175.5W   1001         25          
2001-12-28 00   11.7   175.5W   1001         25          
2001-12-28 06   11.4   176.4W   1001         25          
2001-12-28 12   10.6   175.0W   1001         25          
2001-12-28 18   10.5   175.4W   1000         30          
2001-12-29 00   10.9   174.0W    997         30          
2001-12-29 06   11.4   174.5W    995    1    35          
2001-12-29 12   11.9   174.8W    990    1    40          
2001-12-29 18   12.5   175.7W    985    2    50          
2001-12-30 00   13.1   176.1W    980    2    55          
2001-12-30 06   13.4   176.0W    975    2    60          
2001-12-30 12   14.3   175.8W    960    3    75          
2001-12-30 18   15.0   175.8W    955    3    80          
2001-12-31 00   16.1   175.6W    945    3    85          
2001-12-31 06   17.3   174.6W    940    4    90          
2001-12-31 12   18.7   174.1W    935    4    90          
2001-12-31 18   20.4   172.7W    930    4    95          
2002-01-01 00   21.9   171.5W    940    4    90          
2002-01-01 06   23.9   169.6W    950    3    80          
2002-01-01 12   25.6   168.5W    965    3    70          
2002-01-01 17   27.5   167.8W    980    2    55          
2002-01-02 00   29.5   168.0W    980    2    55          
2002-01-02 05   30.5   167.5W    984    2    55          
2002-01-02 11   31.0   167.0W    984    2    55          
2002-01-02 17   32.0   167.0W    990    2    55          
2002-01-02 23   32.0   167.0W    990    2    50          
2002-01-03 05   32.0   166.0W    990    2    60          
2002-01-03 11   32.0   166.0W    990    2    55          
2002-01-03 17   33.0   166.5W    989    2    55          
2002-01-03 23   33.5   165.5W    990    2    50          
2002-01-04 05   35.0   165.0W    985    1    45          
2002-01-04 11   36.0   164.0W    985    1    45          
2002-01-04 17   38.0   165.0W    984    1    35          
2002-01-04 23   40.0   163.5W    986    1    35          
2002-01-05 05   43.0   162.0W    989    1    35          
Winds are 10-min average.

Tropical cyclone tracks developed by Michael Bath using operational warnings and advisories and Google Maps.


[Australian Severe Weather index] [Copyright Notice] [Email Contacts] [Search This Site] [Privacy Policy]
Document: tropical_cyclone_waka.htm Updated: 28 May 2013